Time;durP1;ratioP1;P1;durP2;ratioP2;P2;SDS_P1;SDS_P2;PMS_P1;PMS_P2;Temp;Humidity;BMP_temperature;BMP_pressure;BME280_temperature;BME280_humidity;BME280_pressure;Samples;Min_cycle;Max_cycle;Signal;HPM_P1;HPM_P2
2023/01/29 00:01:27;;;;;;;19.48;14.40;;;3.40;99.90;;;;;;4980148;28;20126;-81
2023/01/29 00:03:53;;;;;;;21.23;14.55;;;3.20;99.90;;;;;;4973529;28;20160;-80
2023/01/29 00:06:18;;;;;;;20.48;14.48;;;3.10;99.90;;;;;;4978005;28;20444;-83
2023/01/29 00:08:45;;;;;;;18.48;13.82;;;4.20;99.90;;;;;;4984519;28;20225;-83
2023/01/29 00:11:11;;;;;;;19.35;14.30;;;3.30;99.90;;;;;;4986108;28;20047;-83
2023/01/29 00:13:37;;;;;;;19.30;14.27;;;2.80;99.90;;;;;;4984616;28;20101;-83
2023/01/29 00:16:03;;;;;;;19.38;14.30;;;3.10;99.90;;;;;;4985580;28;20125;-82
2023/01/29 00:18:29;;;;;;;21.20;14.55;;;3.50;99.90;;;;;;4987578;28;20049;-82
2023/01/29 00:20:55;;;;;;;18.17;14.27;;;3.20;99.90;;;;;;4986036;28;20050;-82
2023/01/29 00:23:21;;;;;;;20.38;13.98;;;3.20;99.90;;;;;;4982448;28;20152;-82
2023/01/29 00:25:47;;;;;;;21.08;14.25;;;3.30;99.90;;;;;;4969631;28;20058;-82
2023/01/29 00:28:14;;;;;;;22.63;14.15;;;3.10;99.90;;;;;;4987224;28;20435;-82
2023/01/29 00:30:39;;;;;;;19.50;14.63;;;3.20;99.90;;;;;;4987609;28;20054;-82
2023/01/29 00:33:05;;;;;;;19.00;13.82;;;3.10;99.90;;;;;;4975369;28;20051;-82
2023/01/29 00:35:32;;;;;;;20.33;14.48;;;4.00;99.90;;;;;;4985546;28;20076;-82
2023/01/29 00:37:57;;;;;;;18.77;14.38;;;3.50;99.90;;;;;;4986217;28;20382;-82
2023/01/29 00:40:25;;;;;;;20.70;14.70;;;3.30;99.90;;;;;;4988342;28;20038;-82
2023/01/29 00:45:36;;;;;;;22.83;14.38;;;3.40;99.90;;;;;;4985802;28;20061;-82
2023/01/29 00:48:03;;;;;;;21.90;14.35;;;3.20;99.90;;;;;;4980475;28;20054;-82
2023/01/29 00:50:29;;;;;;;23.52;15.30;;;3.10;99.90;;;;;;4975991;28;20050;-82
2023/01/29 00:52:55;;;;;;;19.88;13.73;;;3.20;99.90;;;;;;4970558;28;20066;-82
2023/01/29 00:55:21;;;;;;;20.27;14.27;;;3.30;99.90;;;;;;4983769;28;20394;-82
2023/01/29 00:57:47;;;;;;;21.15;14.73;;;3.10;99.90;;;;;;4984828;28;21391;-82
2023/01/29 01:00:15;;;;;;;19.80;14.85;;;2.90;99.90;;;;;;4971890;28;20145;-82
2023/01/29 01:05:25;;;;;;;21.40;14.55;;;3.10;99.90;;;;;;4982290;28;20149;-82
2023/01/29 01:07:53;;;;;;;20.65;14.60;;;3.10;99.90;;;;;;4988208;28;20046;-82
2023/01/29 01:10:23;;;;;;;20.80;14.70;;;3.80;99.90;;;;;;4972987;28;20046;-82
2023/01/29 01:12:58;;;;;;;21.70;14.75;;;3.30;99.90;;;;;;4967661;28;20039;-82
2023/01/29 01:15:26;;;;;;;21.08;14.70;;;3.30;99.90;;;;;;4967952;28;20481;-83
2023/01/29 01:17:54;;;;;;;22.00;14.77;;;3.20;99.90;;;;;;4976412;28;20050;-82
2023/01/29 01:20:20;;;;;;;20.50;15.35;;;3.10;99.90;;;;;;4986761;28;20049;-82
2023/01/29 01:22:45;;;;;;;22.63;15.18;;;3.10;99.90;;;;;;4956190;28;20054;-82
2023/01/29 01:25:11;;;;;;;18.63;14.73;;;3.20;99.90;;;;;;4976872;28;20050;-82
2023/01/29 01:27:39;;;;;;;19.73;14.38;;;3.30;99.90;;;;;;4956391;28;20057;-82
2023/01/29 01:30:08;;;;;;;19.30;14.63;;;3.40;99.90;;;;;;4981912;28;20069;-82
2023/01/29 01:32:36;;;;;;;19.10;14.95;;;3.40;99.90;;;;;;4985446;28;20884;-82
2023/01/29 01:35:02;;;;;;;20.48;14.82;;;4.10;99.90;;;;;;4987186;28;20485;-82
2023/01/29 01:37:28;;;;;;;20.90;14.63;;;3.50;99.90;;;;;;4983988;28;20062;-82
2023/01/29 01:39:56;;;;;;;20.17;14.55;;;3.20;99.90;;;;;;4987276;28;20898;-82
2023/01/29 01:42:31;;;;;;;20.58;14.65;;;3.10;99.90;;;;;;4967322;28;20378;-82
2023/01/29 01:45:05;;;;;;;21.73;15.13;;;3.40;99.90;;;;;;4968170;28;20076;-82
2023/01/29 01:47:40;;;;;;;21.95;14.68;;;3.80;99.90;;;;;;4959228;28;20043;-82
2023/01/29 01:50:12;;;;;;;22.23;14.80;;;3.40;99.90;;;;;;4968219;28;20047;-82
2023/01/29 01:52:42;;;;;;;20.65;14.10;;;3.30;99.90;;;;;;4979008;28;20050;-82
2023/01/29 01:55:12;;;;;;;19.05;14.50;;;3.50;99.90;;;;;;4964008;28;20039;-82
2023/01/29 01:57:40;;;;;;;21.90;15.07;;;3.40;99.90;;;;;;4980630;28;20049;-82
2023/01/29 02:00:09;;;;;;;24.27;15.20;;;3.20;99.90;;;;;;4957739;28;20090;-82
2023/01/29 02:10:54;;;;;;;21.85;15.18;;;3.40;99.90;;;;;;4970497;28;20059;-82
2023/01/29 02:13:20;;;;;;;19.75;14.95;;;5.70;99.90;;;;;;4976452;28;20409;-82
2023/01/29 02:15:47;;;;;;;20.58;15.35;;;3.50;99.90;;;;;;4985484;28;20050;-82
2023/01/29 02:18:18;;;;;;;19.30;14.18;;;3.40;99.90;;;;;;4984076;28;20057;-82
2023/01/29 02:21:23;;;;;;;19.88;13.95;;;3.50;99.90;;;;;;4986854;28;20129;-82
2023/01/29 02:24:11;;;;;;;19.80;14.27;;;3.50;99.90;;;;;;4972078;28;20050;-82
2023/01/29 02:27:02;;;;;;;19.23;15.13;;;3.50;99.90;;;;;;4963983;28;20134;-82
2023/01/29 02:29:37;;;;;;;21.42;15.00;;;3.70;99.90;;;;;;4977755;28;20058;-82
2023/01/29 02:32:31;;;;;;;19.67;14.80;;;3.90;99.90;;;;;;4964992;28;20055;-82
2023/01/29 02:35:28;;;;;;;21.48;15.25;;;3.10;99.90;;;;;;4952338;28;20059;-82
2023/01/29 02:38:16;;;;;;;23.48;15.45;;;3.40;99.90;;;;;;4985206;28;20424;-82
2023/01/29 02:40:55;;;;;;;21.55;15.98;;;3.60;99.90;;;;;;4990701;28;20545;-82
2023/01/29 02:43:46;;;;;;;22.20;15.43;;;3.60;99.90;;;;;;4953644;28;20054;-82
2023/01/29 02:46:38;;;;;;;21.33;14.27;;;4.50;99.90;;;;;;4985609;28;20438;-82
2023/01/29 02:49:21;;;;;;;20.27;15.10;;;3.40;99.90;;;;;;4985146;28;20485;-82
2023/01/29 02:51:49;;;;;;;;;;;3.60;99.90;;;;;;4970560;28;20058;-83
2023/01/29 02:54:33;;;;;;;20.50;15.07;;;3.50;99.90;;;;;;4985764;28;20336;-82
2023/01/29 02:57:16;;;;;;;18.77;14.35;;;3.40;99.90;;;;;;4954563;28;20058;-82
2023/01/29 02:59:57;;;;;;;19.10;14.07;;;3.40;99.90;;;;;;4994052;28;20049;-82
2023/01/29 03:02:31;;;;;;;20.38;14.65;;;3.40;99.90;;;;;;4958714;28;20409;-82
2023/01/29 03:05:06;;;;;;;21.48;15.13;;;3.30;99.90;;;;;;4990144;28;20089;-82
2023/01/29 03:07:41;;;;;;;20.55;14.43;;;3.80;99.90;;;;;;4988675;28;20096;-82
2023/01/29 03:10:16;;;;;;;24.05;15.98;;;3.40;99.90;;;;;;4989978;28;20046;-82
2023/01/29 03:12:44;;;;;;;19.63;14.63;;;3.50;99.90;;;;;;4986897;28;20689;-82
2023/01/29 03:15:23;;;;;;;19.95;14.88;;;3.70;99.90;;;;;;4967209;28;20777;-82
2023/01/29 03:17:55;;;;;;;21.45;15.52;;;3.50;99.90;;;;;;4953378;28;20055;-82
2023/01/29 03:20:28;;;;;;;23.55;14.75;;;3.60;99.90;;;;;;4966717;28;20062;-83
2023/01/29 03:23:00;;;;;;;20.52;14.63;;;3.30;99.90;;;;;;4971320;28;20065;-83
2023/01/29 03:34:07;;;;;;;20.98;15.18;;;3.50;99.90;;;;;;4976476;28;20460;-83
2023/01/29 03:36:54;;;;;;;21.98;15.00;;;3.40;99.90;;;;;;4989212;28;20058;-82
2023/01/29 03:39:20;;;;;;;23.85;15.38;;;3.60;99.90;;;;;;4986227;28;20034;-82
2023/01/29 03:42:06;;;;;;;22.85;15.73;;;3.20;99.90;;;;;;4976161;28;20150;-82
2023/01/29 03:44:50;;;;;;;19.85;14.82;;;3.60;99.90;;;;;;4985035;28;20132;-83
2023/01/29 03:47:24;;;;;;;20.65;15.15;;;3.60;99.90;;;;;;4984914;28;20046;-82
2023/01/29 03:50:01;;;;;;;24.02;15.95;;;3.60;99.90;;;;;;4975587;28;20054;-82
2023/01/29 03:52:42;;;;;;;20.23;16.02;;;3.70;99.90;;;;;;4970101;28;20521;-83
2023/01/29 03:55:54;;;;;;;20.50;15.75;;;3.60;99.90;;;;;;4982666;28;20416;-84
2023/01/29 03:58:41;;;;;;;19.15;15.65;;;3.40;99.90;;;;;;4948112;28;20054;-83
2023/01/29 04:01:32;;;;;;;20.98;16.40;;;3.50;99.90;;;;;;4981576;28;20050;-83
2023/01/29 04:04:10;;;;;;;22.75;16.73;;;3.70;99.90;;;;;;4965557;28;20137;-83
2023/01/29 04:06:39;;;;;;;23.90;16.83;;;4.00;99.90;;;;;;4994194;28;20409;-83
2023/01/29 04:09:22;;;;;;;21.90;14.93;;;5.00;99.90;;;;;;4989199;28;20046;-81
2023/01/29 04:12:02;;;;;;;25.85;17.73;;;3.80;99.90;;;;;;4984895;28;20395;-83
2023/01/29 04:14:30;;;;;;;24.45;17.45;;;3.80;99.90;;;;;;4980375;28;20338;-83
2023/01/29 04:17:00;;;;;;;22.48;17.17;;;3.50;99.90;;;;;;4987733;28;20050;-83
2023/01/29 04:19:26;;;;;;;28.00;18.23;;;3.80;99.90;;;;;;4982994;28;20042;-82
2023/01/29 04:22:00;;;;;;;27.73;18.20;;;3.70;99.90;;;;;;4968321;28;20060;-83
2023/01/29 04:24:26;;;;;;;24.50;17.58;;;4.00;99.90;;;;;;4984218;28;20413;-82
2023/01/29 04:27:14;;;;;;;24.88;17.70;;;3.70;99.90;;;;;;4954088;28;20055;-83
2023/01/29 04:29:55;;;;;;;25.80;18.15;;;3.90;99.90;;;;;;4988453;28;20038;-83
2023/01/29 04:32:27;;;;;;;26.75;19.02;;;3.70;99.90;;;;;;4959777;28;20043;-83
2023/01/29 04:35:00;;;;;;;25.33;18.58;;;3.80;99.90;;;;;;4981756;28;20542;-83
2023/01/29 04:37:32;;;;;;;24.95;18.73;;;3.90;99.90;;;;;;4970767;28;20493;-83
2023/01/29 04:40:19;;;;;;;24.60;18.45;;;3.70;99.90;;;;;;4984760;28;20052;-82
2023/01/29 04:43:06;;;;;;;26.33;19.50;;;3.90;99.90;;;;;;4985102;28;20494;-83
2023/01/29 04:45:52;;;;;;;27.20;19.48;;;4.00;99.90;;;;;;4983667;28;20054;-83
2023/01/29 04:48:26;;;;;;;25.67;18.80;;;3.90;99.90;;;;;;4965631;28;20065;-83
2023/01/29 04:50:56;;;;;;;27.02;19.63;;;3.70;99.90;;;;;;4980775;28;20054;-83
2023/01/29 04:53:34;;;;;;;24.90;19.45;;;3.70;99.90;;;;;;4962723;28;20038;-83
2023/01/29 04:56:32;;;;;;;28.65;20.50;;;3.90;99.90;;;;;;4982840;28;20051;-83
2023/01/29 04:59:04;;;;;;;26.65;19.02;;;3.80;99.90;;;;;;4972724;28;20509;-83
2023/01/29 05:01:32;;;;;;;29.23;19.80;;;3.60;99.90;;;;;;4981478;28;20043;-83
2023/01/29 05:04:01;;;;;;;25.52;19.65;;;3.60;99.90;;;;;;4982487;28;20051;-83
2023/01/29 05:06:28;;;;;;;29.65;20.20;;;3.50;99.90;;;;;;4988926;28;20050;-83
2023/01/29 05:08:55;;;;;;;28.30;22.05;;;3.60;99.90;;;;;;4970485;28;20070;-83
2023/01/29 05:11:23;;;;;;;28.33;19.85;;;3.70;99.90;;;;;;4949631;29;20765;-83
2023/01/29 05:13:49;;;;;;;28.60;20.35;;;3.70;99.90;;;;;;4970577;28;20054;-83
2023/01/29 05:16:19;;;;;;;26.70;20.30;;;4.00;99.90;;;;;;4986058;28;20057;-83
2023/01/29 05:18:45;;;;;;;27.38;20.38;;;4.00;99.90;;;;;;4984478;28;20497;-82
2023/01/29 05:21:11;;;;;;;29.13;21.08;;;4.70;99.90;;;;;;4984654;28;20078;-82
2023/01/29 05:23:37;;;;;;;25.63;19.73;;;3.60;99.90;;;;;;4975824;28;20086;-82
2023/01/29 05:26:03;;;;;;;26.58;20.45;;;3.70;99.90;;;;;;4986111;28;20158;-83
2023/01/29 05:28:29;;;;;;;28.13;20.88;;;3.80;99.90;;;;;;4986323;28;20141;-82
2023/01/29 05:30:56;;;;;;;26.13;20.30;;;3.80;99.90;;;;;;4966224;28;20345;-83
2023/01/29 05:33:27;;;;;;;27.50;20.25;;;3.70;99.90;;;;;;4966346;28;20117;-83
2023/01/29 05:35:54;;;;;;;27.55;20.77;;;3.80;99.90;;;;;;4967361;28;20433;-83
2023/01/29 05:38:20;;;;;;;30.25;21.17;;;3.70;99.90;;;;;;4983430;28;20105;-82
2023/01/29 05:40:46;;;;;;;29.33;21.95;;;3.60;99.90;;;;;;4983587;28;20038;-81
2023/01/29 05:43:15;;;;;;;24.80;20.40;;;3.80;99.90;;;;;;4973047;28;20471;-83
2023/01/29 05:45:41;;;;;;;29.63;21.38;;;3.80;99.90;;;;;;4981209;28;20093;-82
2023/01/29 05:48:07;;;;;;;28.67;21.83;;;3.70;99.90;;;;;;4977114;28;20133;-82
2023/01/29 05:50:32;;;;;;;29.00;21.52;;;3.80;99.90;;;;;;4978102;28;20404;-82
2023/01/29 05:53:00;;;;;;;30.35;22.38;;;4.10;99.90;;;;;;4983395;28;20053;-83
2023/01/29 05:58:18;;;;;;;27.73;21.02;;;4.20;99.90;;;;;;4970058;28;20089;-83
2023/01/29 06:00:44;;;;;;;28.20;20.75;;;3.80;99.90;;;;;;4983933;28;20062;-83
2023/01/29 06:03:09;;;;;;;28.80;21.75;;;3.30;99.90;;;;;;4951043;28;20097;-83
2023/01/29 06:05:38;;;;;;;29.95;23.25;;;3.60;99.90;;;;;;4964382;28;20051;-83
2023/01/29 06:08:05;;;;;;;29.55;21.88;;;3.70;99.90;;;;;;4980163;28;20053;-83
2023/01/29 06:10:31;;;;;;;30.17;22.00;;;4.00;99.90;;;;;;4993410;28;20050;-83
2023/01/29 06:12:56;;;;;;;27.55;21.60;;;4.20;99.90;;;;;;4986737;28;20117;-83
2023/01/29 06:15:26;;;;;;;31.27;21.92;;;;;;;;;;4968698;28;20054;-83
2023/01/29 06:17:59;;;;;;;25.83;20.13;;;;;;;;;;4990367;28;20065;-82
2023/01/29 06:20:28;;;;;;;29.35;22.80;;;3.70;99.90;;;;;;4988776;28;20046;-83
2023/01/29 06:22:55;;;;;;;26.30;20.60;;;4.40;99.90;;;;;;4978937;28;20078;-83
2023/01/29 06:25:24;;;;;;;30.67;22.67;;;4.00;99.90;;;;;;4963616;28;20139;-83
2023/01/29 06:27:52;;;;;;;27.38;21.40;;;3.60;99.90;;;;;;4969756;28;20098;-83
2023/01/29 06:30:18;;;;;;;26.35;20.52;;;3.70;99.90;;;;;;4970337;28;20477;-83
2023/01/29 06:32:44;;;;;;;28.10;21.90;;;4.00;99.90;;;;;;4970074;28;20053;-81
2023/01/29 06:35:09;;;;;;;28.80;21.73;;;3.70;99.90;;;;;;4954611;28;20134;-83
2023/01/29 06:37:37;;;;;;;27.63;21.17;;;3.60;99.90;;;;;;4958060;28;20484;-83
2023/01/29 06:40:04;;;;;;;27.85;20.98;;;3.80;99.90;;;;;;4969251;28;20483;-83
2023/01/29 06:42:36;;;;;;;28.75;20.15;;;3.90;99.90;;;;;;4968361;28;20046;-83
2023/01/29 06:45:02;;;;;;;27.33;21.77;;;4.20;99.90;;;;;;4950023;28;20130;-83
2023/01/29 06:47:27;;;;;;;27.08;21.20;;;3.90;99.90;;;;;;4956407;28;20891;-81
2023/01/29 06:49:53;;;;;;;27.92;20.58;;;3.20;99.90;;;;;;4952468;28;20218;-82
2023/01/29 06:52:19;;;;;;;26.42;20.85;;;3.70;99.90;;;;;;4965865;28;20066;-82
2023/01/29 06:54:44;;;;;;;26.92;21.42;;;3.70;99.90;;;;;;4954578;28;20050;-82
2023/01/29 06:57:12;;;;;;;28.02;21.27;;;4.10;99.90;;;;;;4970836;28;20043;-82
2023/01/29 06:59:38;;;;;;;25.63;20.75;;;3.40;99.90;;;;;;4943121;29;20109;-82
2023/01/29 07:02:03;;;;;;;28.90;21.52;;;3.60;99.90;;;;;;4951224;29;20043;-82
2023/01/29 07:04:29;;;;;;;29.38;21.08;;;3.80;99.90;;;;;;4950920;28;20054;-82
2023/01/29 07:06:55;;;;;;;28.55;21.77;;;4.00;99.90;;;;;;4985108;28;20046;-82
2023/01/29 07:09:20;;;;;;;24.48;21.35;;;3.70;99.90;;;;;;4974465;28;20220;-81
2023/01/29 07:11:46;;;;;;;28.80;22.17;;;3.80;99.90;;;;;;4986523;28;20047;-82
2023/01/29 07:14:12;;;;;;;28.45;21.40;;;3.80;99.90;;;;;;4970142;28;20051;-82
2023/01/29 07:16:38;;;;;;;29.92;22.40;;;4.70;99.90;;;;;;4969880;28;20074;-82
2023/01/29 07:19:03;;;;;;;30.98;22.90;;;3.70;99.90;;;;;;4968572;28;20065;-81
2023/01/29 07:21:29;;;;;;;28.08;21.55;;;4.10;99.90;;;;;;4971424;28;20046;-84
2023/01/29 07:23:55;;;;;;;28.40;21.48;;;3.90;99.90;;;;;;4974761;28;20070;-82
2023/01/29 07:26:20;;;;;;;30.52;23.13;;;3.70;99.90;;;;;;4989536;28;20050;-82
2023/01/29 07:28:46;;;;;;;27.73;22.15;;;3.70;99.90;;;;;;4991227;28;20085;-83
2023/01/29 07:31:13;;;;;;;29.17;22.17;;;3.90;99.90;;;;;;4989690;28;20082;-82
2023/01/29 07:33:42;;;;;;;30.48;22.98;;;3.60;99.90;;;;;;4968156;28;20050;-83
2023/01/29 07:36:09;;;;;;;29.83;21.63;;;3.80;99.90;;;;;;4968105;28;20130;-82
2023/01/29 07:38:34;;;;;;;31.27;24.25;;;2.80;99.90;;;;;;4975947;28;20469;-83
2023/01/29 07:41:00;;;;;;;29.75;22.83;;;3.60;99.90;;;;;;4988080;28;20057;-82
2023/01/29 07:43:25;;;;;;;30.73;23.33;;;3.80;99.90;;;;;;4969247;28;20053;-82
2023/01/29 07:45:51;;;;;;;28.15;22.13;;;3.60;99.90;;;;;;4969973;28;20043;-83
2023/01/29 07:48:17;;;;;;;28.70;22.40;;;4.00;99.90;;;;;;4969600;28;20055;-82
2023/01/29 07:50:43;;;;;;;31.60;23.35;;;3.90;99.90;;;;;;4963386;28;20057;-83
2023/01/29 07:53:13;;;;;;;28.02;22.05;;;3.60;99.90;;;;;;4970860;28;20233;-82
2023/01/29 07:55:39;;;;;;;31.10;22.35;;;3.60;99.90;;;;;;4958380;28;20043;-82
2023/01/29 07:58:05;;;;;;;29.33;22.45;;;3.60;99.90;;;;;;4970019;28;20050;-83
2023/01/29 08:00:31;;;;;;;28.42;22.10;;;4.10;99.90;;;;;;4969689;28;20410;-83
2023/01/29 08:03:05;;;;;;;29.27;22.52;;;3.80;99.90;;;;;;4972320;28;20050;-83
2023/01/29 08:05:34;;;;;;;30.00;22.48;;;3.80;99.90;;;;;;4989221;28;20093;-83
2023/01/29 08:08:00;;;;;;;29.83;23.10;;;3.80;99.90;;;;;;4988859;28;20509;-83
2023/01/29 08:10:29;;;;;;;33.35;23.77;;;3.70;99.90;;;;;;4988700;28;20046;-84
2023/01/29 08:12:56;;;;;;;33.58;25.30;;;3.90;99.90;;;;;;4989768;28;20096;-83
2023/01/29 08:15:23;;;;;;;32.13;23.33;;;3.80;99.90;;;;;;4988689;28;20054;-83
2023/01/29 08:17:48;;;;;;;31.13;23.13;;;3.70;99.90;;;;;;4978746;28;20093;-83
2023/01/29 08:20:14;;;;;;;33.78;22.85;;;3.90;99.90;;;;;;4968465;28;20058;-82
2023/01/29 08:22:40;;;;;;;32.58;23.00;;;3.90;99.90;;;;;;4952746;28;20039;-83
2023/01/29 08:25:06;;;;;;;30.90;22.40;;;4.10;99.90;;;;;;4968374;28;20102;-83
2023/01/29 08:27:31;;;;;;;28.88;21.75;;;4.00;99.90;;;;;;4969035;28;20398;-83
2023/01/29 08:29:57;;;;;;;31.58;22.77;;;4.00;99.90;;;;;;4952856;28;20098;-83
2023/01/29 08:32:23;;;;;;;29.85;21.65;;;3.90;99.90;;;;;;4951563;28;20042;-83
2023/01/29 08:34:48;;;;;;;30.08;21.45;;;4.20;99.90;;;;;;4952455;28;20146;-83
2023/01/29 08:37:14;;;;;;;32.08;21.67;;;4.20;99.90;;;;;;4968369;28;20046;-83
2023/01/29 08:39:42;;;;;;;31.40;21.85;;;4.10;99.90;;;;;;4968777;28;20476;-83
2023/01/29 08:42:08;;;;;;;32.75;22.63;;;4.00;99.90;;;;;;4968625;28;20050;-83
2023/01/29 08:44:33;;;;;;;31.02;22.48;;;4.10;99.90;;;;;;4968119;28;20055;-83
2023/01/29 08:47:01;;;;;;;30.60;22.50;;;4.00;99.90;;;;;;4968596;28;20565;-83
2023/01/29 08:49:27;;;;;;;29.85;22.42;;;3.90;99.90;;;;;;4967431;28;20126;-83
2023/01/29 08:51:55;;;;;;;32.05;22.20;;;5.70;99.90;;;;;;4951852;28;20129;-83
2023/01/29 08:54:21;;;;;;;30.75;22.40;;;5.60;99.90;;;;;;4969132;28;20061;-82
2023/01/29 08:56:47;;;;;;;31.33;22.95;;;4.00;99.90;;;;;;4970055;28;20046;-82
2023/01/29 08:59:13;;;;;;;31.75;22.50;;;5.80;99.90;;;;;;4968032;28;20504;-81
2023/01/29 09:01:39;;;;;;;29.23;20.63;;;4.00;99.90;;;;;;4968778;28;20042;-82
2023/01/29 09:04:04;;;;;;;29.85;21.85;;;5.80;99.90;;;;;;4951800;28;20047;-82
2023/01/29 09:06:30;;;;;;;31.83;22.38;;;4.30;99.90;;;;;;4967610;28;20046;-82
2023/01/29 09:08:56;;;;;;;31.63;21.75;;;;;;;;;;4954570;28;20051;-82
2023/01/29 09:11:22;;;;;;;30.52;22.05;;;4.60;99.90;;;;;;4929919;29;20048;-83
2023/01/29 09:13:48;;;;;;;31.50;21.83;;;;;;;;;;4945233;29;20039;-82
2023/01/29 09:16:14;;;;;;;32.50;21.65;;;4.40;99.90;;;;;;4965754;28;20175;-82
2023/01/29 09:18:39;;;;;;;30.42;21.23;;;4.40;99.90;;;;;;4951389;29;20138;-82
2023/01/29 09:21:05;;;;;;;28.52;21.58;;;4.40;99.90;;;;;;4951654;28;21863;-83
2023/01/29 09:23:31;;;;;;;31.23;21.63;;;4.50;99.90;;;;;;4952859;28;20061;-82
2023/01/29 09:26:00;;;;;;;30.88;22.38;;;4.60;99.90;;;;;;4982456;28;20122;-83
2023/01/29 09:28:25;;;;;;;29.90;20.65;;;4.70;99.90;;;;;;4950000;29;20454;-82
2023/01/29 09:30:51;;;;;;;31.77;21.90;;;4.60;99.90;;;;;;4951389;28;20043;-83
2023/01/29 09:33:17;;;;;;;32.22;22.15;;;4.50;99.90;;;;;;4948377;29;20051;-83
2023/01/29 09:35:44;;;;;;;28.30;21.48;;;4.60;99.90;;;;;;4962111;28;20073;-83
2023/01/29 09:38:10;;;;;;;30.45;22.25;;;4.60;99.90;;;;;;4984268;28;20050;-83
2023/01/29 09:40:51;;;;;;;34.88;21.60;;;4.80;99.90;;;;;;4970299;28;20035;-84
2023/01/29 09:43:20;;;;;;;30.17;21.67;;;;;;;;;;4986965;28;20124;-82
2023/01/29 09:45:57;;;;;;;27.85;21.95;;;4.80;99.90;;;;;;4978476;28;20043;-82
2023/01/29 09:48:26;;;;;;;28.67;21.45;;;4.60;99.90;;;;;;4967894;28;20047;-83
2023/01/29 09:50:55;;;;;;;31.15;21.85;;;4.80;99.90;;;;;;4969043;28;20577;-83
2023/01/29 09:53:38;;;;;;;31.02;23.27;;;4.60;99.90;;;;;;4969238;28;20051;-85
2023/01/29 09:56:09;;;;;;;31.58;22.98;;;4.50;99.90;;;;;;4993267;28;20046;-84
2023/01/29 09:58:38;;;;;;;30.33;22.98;;;4.90;99.90;;;;;;4988873;28;20134;-85
2023/01/29 10:01:39;;;;;;;29.92;22.35;;;4.70;99.90;;;;;;4988099;28;20062;-82
2023/01/29 10:04:32;;;;;;;32.28;23.30;;;4.70;99.90;;;;;;4968443;28;20121;-83
2023/01/29 10:07:56;;;;;;;29.55;22.15;;;4.80;99.90;;;;;;4984585;28;20093;-82
2023/01/29 10:10:44;;;;;;;31.23;20.77;;;4.60;99.90;;;;;;4931138;29;20054;-83
2023/01/29 10:13:13;;;;;;;28.85;21.25;;;4.80;99.90;;;;;;4914867;29;20051;-84
2023/01/29 10:16:08;;;;;;;30.40;22.27;;;4.80;99.90;;;;;;4968201;28;20151;-83
2023/01/29 10:19:00;;;;;;;28.92;21.60;;;;;;;;;;4964067;28;20058;-85
2023/01/29 10:21:45;;;;;;;29.05;22.30;;;;;;;;;;4941680;28;20204;-86
2023/01/29 10:24:14;;;;;;;29.98;21.77;;;;;;;;;;4986570;28;20101;-84
2023/01/29 10:26:40;;;;;;;29.20;22.08;;;;;;;;;;4986670;28;20906;-84
2023/01/29 10:29:09;;;;;;;31.38;22.52;;;4.80;99.90;;;;;;4988503;28;20520;-85
2023/01/29 10:31:38;;;;;;;33.47;23.58;;;4.80;99.90;;;;;;4980958;28;20444;-85
2023/01/29 10:34:24;;;;;;;33.05;23.50;;;4.80;99.90;;;;;;4950774;28;20043;-85
2023/01/29 10:36:50;;;;;;;33.08;22.55;;;4.80;99.90;;;;;;4967618;28;20054;-85
2023/01/29 10:39:20;;;;;;;32.35;22.02;;;4.80;99.90;;;;;;4966984;28;20530;-85
2023/01/29 10:42:13;;;;;;;35.55;22.73;;;4.80;99.90;;;;;;4967216;28;20054;-85
2023/01/29 10:44:57;;;;;;;30.05;22.15;;;4.70;99.90;;;;;;4966630;28;20050;-85
2023/01/29 10:47:29;;;;;;;31.35;21.45;;;4.70;99.90;;;;;;4967863;28;20421;-86
2023/01/29 10:49:58;;;;;;;29.35;21.25;;;4.70;99.90;;;;;;4967961;28;20838;-85
2023/01/29 10:53:03;;;;;;;32.92;23.55;;;5.30;99.90;;;;;;4967231;28;20054;-84
2023/01/29 10:55:48;;;;;;;33.35;22.88;;;4.70;99.90;;;;;;4985781;28;20042;-85
2023/01/29 10:58:40;;;;;;;31.33;22.75;;;4.70;99.90;;;;;;4967120;28;20463;-85
2023/01/29 11:01:06;;;;;;;28.80;21.33;;;4.70;99.90;;;;;;4956025;28;20133;-84
2023/01/29 11:03:33;;;;;;;31.45;21.77;;;4.60;99.90;;;;;;4971277;28;20125;-85
2023/01/29 11:06:19;;;;;;;32.55;22.30;;;4.60;99.90;;;;;;4970872;28;20046;-86
2023/01/29 11:08:58;;;;;;;32.65;23.10;;;4.60;99.90;;;;;;4973807;28;20441;-85
2023/01/29 11:11:54;;;;;;;32.92;23.27;;;4.60;99.90;;;;;;4982606;28;20057;-86
2023/01/29 11:14:44;;;;;;;31.73;22.98;;;4.60;99.90;;;;;;4950903;29;20682;-84
2023/01/29 11:17:21;;;;;;;32.33;22.20;;;4.60;99.90;;;;;;4952885;28;20043;-83
2023/01/29 11:19:51;;;;;;;32.53;23.17;;;4.90;99.90;;;;;;4966878;28;20052;-85
2023/01/29 11:22:18;;;;;;;30.80;22.75;;;4.70;99.90;;;;;;4971972;28;20097;-85
2023/01/29 11:24:45;;;;;;;32.42;23.00;;;4.70;99.90;;;;;;4963671;28;20067;-84
2023/01/29 11:27:27;;;;;;;30.13;22.67;;;4.70;99.90;;;;;;4952009;28;20438;-82
2023/01/29 11:29:54;;;;;;;34.38;23.67;;;4.70;99.90;;;;;;4964082;28;20093;-83
2023/01/29 11:32:24;;;;;;;32.22;22.48;;;4.70;99.90;;;;;;4968707;28;20049;-83
2023/01/29 11:35:06;;;;;;;32.67;22.73;;;4.80;99.90;;;;;;4969890;28;20050;-83
2023/01/29 11:37:39;;;;;;;30.40;22.67;;;4.70;99.90;;;;;;4969954;28;20169;-82
2023/01/29 11:40:17;;;;;;;32.60;23.85;;;4.70;99.90;;;;;;4970933;28;20051;-83
2023/01/29 11:42:47;;;;;;;34.90;24.25;;;4.70;99.90;;;;;;4971019;28;20055;-82
2023/01/29 11:45:19;;;;;;;32.10;22.75;;;4.70;99.90;;;;;;4961833;28;20413;-82
2023/01/29 11:47:49;;;;;;;34.20;23.15;;;4.80;99.90;;;;;;4951331;28;20057;-83
2023/01/29 11:50:28;;;;;;;32.08;23.38;;;4.80;99.90;;;;;;4968503;28;20050;-85
2023/01/29 11:52:54;;;;;;;31.95;23.13;;;4.80;99.90;;;;;;4969741;28;20517;-83
2023/01/29 11:55:22;;;;;;;34.22;24.40;;;4.80;99.90;;;;;;4952686;28;20401;-84
2023/01/29 11:57:53;;;;;;;40.67;23.55;;;4.90;99.90;;;;;;4971347;28;20110;-84
2023/01/29 12:00:25;;;;;;;33.45;22.85;;;4.90;99.90;;;;;;4952958;28;20058;-83
2023/01/29 12:02:56;;;;;;;34.25;24.33;;;4.90;99.90;;;;;;4965490;28;20105;-84
2023/01/29 12:05:24;;;;;;;32.90;23.30;;;4.90;99.90;;;;;;4949681;28;20405;-85
2023/01/29 12:07:53;;;;;;;33.00;22.08;;;5.00;99.90;;;;;;4953950;28;20294;-85
2023/01/29 12:10:33;;;;;;;31.30;22.42;;;;;;;;;;4967837;28;20050;-84
2023/01/29 12:13:06;;;;;;;32.28;22.95;;;;;;;;;;4968800;28;20101;-83
2023/01/29 12:15:32;;;;;;;33.22;22.48;;;;;;;;;;4969613;28;20390;-84
2023/01/29 12:18:04;;;;;;;34.78;22.85;;;;;;;;;;4960380;28;20055;-84
2023/01/29 12:20:34;;;;;;;30.33;22.77;;;;;;;;;;4969158;28;20049;-83
2023/01/29 12:23:07;;;;;;;30.88;22.00;;;;;;;;;;4969608;28;20039;-81
2023/01/29 12:25:37;;;;;;;30.35;21.65;;;5.40;99.90;;;;;;5009898;28;20093;-83
2023/01/29 12:28:26;;;;;;;28.70;20.92;;;5.30;99.90;;;;;;4991529;28;20049;-83
2023/01/29 12:31:34;;;;;;;28.50;20.52;;;5.30;99.90;;;;;;4980952;28;20061;-83
2023/01/29 12:34:19;;;;;;;31.77;21.05;;;5.20;99.90;;;;;;4960106;28;20066;-82
2023/01/29 12:37:01;;;;;;;26.08;19.98;;;5.50;99.90;;;;;;4952187;28;20054;-83
2023/01/29 12:39:26;;;;;;;28.63;20.30;;;5.10;99.90;;;;;;4965898;28;20042;-82
2023/01/29 12:41:55;;;;;;;29.08;20.30;;;5.30;99.90;;;;;;4991211;28;20463;-82
2023/01/29 12:44:44;;;;;;;28.83;20.45;;;5.50;99.90;;;;;;4990478;28;20053;-82
2023/01/29 12:47:32;;;;;;;29.38;20.27;;;5.50;99.90;;;;;;4980125;28;20060;-82
2023/01/29 12:50:05;;;;;;;28.88;20.25;;;5.50;99.90;;;;;;4978816;28;20054;-83
2023/01/29 12:53:07;;;;;;;26.58;19.52;;;5.50;99.90;;;;;;4971508;28;20493;-82
2023/01/29 12:55:46;;;;;;;37.53;20.20;;;5.50;99.90;;;;;;4978358;28;20134;-82
2023/01/29 12:58:28;;;;;;;28.08;21.27;;;5.40;99.90;;;;;;5002984;28;20045;-85
2023/01/29 13:00:58;;;;;;;29.02;20.60;;;5.50;99.90;;;;;;4988330;28;20060;-83
2023/01/29 13:03:32;;;;;;;30.02;20.27;;;5.40;99.90;;;;;;5006461;28;20088;-84
2023/01/29 13:06:21;;;;;;;28.58;20.50;;;5.40;99.90;;;;;;4964036;28;20249;-84
2023/01/29 13:08:53;;;;;;;29.73;20.95;;;5.40;99.90;;;;;;4985821;28;20042;-83
2023/01/29 13:11:45;;;;;;;28.17;21.75;;;5.70;99.90;;;;;;4989199;28;20049;-83
2023/01/29 13:14:41;;;;;;;31.85;20.30;;;5.10;99.90;;;;;;4990564;28;20053;-83
2023/01/29 13:17:35;;;;;;;30.55;22.90;;;5.10;99.90;;;;;;4989456;28;20081;-84
2023/01/29 13:20:10;;;;;;;28.55;20.65;;;5.00;99.90;;;;;;4987934;28;20350;-84
2023/01/29 13:22:39;;;;;;;31.15;21.95;;;4.90;99.90;;;;;;5005023;28;20042;-84
2023/01/29 13:25:11;;;;;;;32.25;22.52;;;4.90;99.90;;;;;;5007841;28;20061;-85
2023/01/29 13:27:36;;;;;;;34.00;22.40;;;4.90;99.90;;;;;;5002372;28;20030;-84
2023/01/29 13:30:03;;;;;;;34.97;22.45;;;4.90;99.90;;;;;;4988806;28;20412;-85
2023/01/29 13:32:32;;;;;;;30.67;21.77;;;5.00;99.90;;;;;;5001905;28;20041;-84